createdAt,value
2022-07-30T00:00:53.568Z,1.45
2022-07-30T00:03:21.150Z,1.40
2022-07-30T00:05:49.076Z,2.95
2022-07-30T00:08:16.464Z,4.47
2022-07-30T00:10:43.906Z,1.80
2022-07-30T00:13:14.095Z,3.67
2022-07-30T00:15:42.283Z,0.40
2022-07-30T00:18:09.612Z,0.63
2022-07-30T00:20:40.606Z,0.47
2022-07-30T00:23:11.013Z,2.03
2022-07-30T00:25:38.632Z,0.40
2022-07-30T00:28:06.140Z,2.92
2022-07-30T00:30:33.628Z,1.05
2022-07-30T00:33:01.137Z,1.58
2022-07-30T00:35:28.675Z,3.40
2022-07-30T00:37:56.002Z,0.88
2022-07-30T00:40:23.735Z,0.63
2022-07-30T00:42:51.056Z,3.38
2022-07-30T00:45:18.963Z,3.35
2022-07-30T00:47:46.456Z,3.33
2022-07-30T00:50:14.937Z,1.77
2022-07-30T00:52:43.140Z,1.67
2022-07-30T00:55:14.104Z,2.25
2022-07-30T00:57:42.635Z,2.05
2022-07-30T01:00:13.871Z,2.05
2022-07-30T01:02:42.145Z,1.77
2022-07-30T01:05:10.272Z,3.22
2022-07-30T01:07:37.944Z,2.58
2022-07-30T01:10:07.724Z,3.42
2022-07-30T01:12:35.277Z,2.53
2022-07-30T01:15:05.221Z,0.68
2022-07-30T01:17:33.812Z,1.27
2022-07-30T01:20:07.035Z,2.50
2022-07-30T01:22:42.551Z,3.55
2022-07-30T01:25:32.231Z,0.80
2022-07-30T01:28:12.706Z,1.60
2022-07-30T01:30:43.291Z,0.57
2022-07-30T01:33:14.502Z,2.92
2022-07-30T01:35:45.202Z,4.60
2022-07-30T01:38:14.293Z,5.22
2022-07-30T01:40:44.443Z,2.40
2022-07-30T01:43:13.054Z,3.83
2022-07-30T01:45:44.333Z,0.95
2022-07-30T01:48:15.052Z,1.85
2022-07-30T01:50:45.768Z,1.15
2022-07-30T01:53:23.916Z,1.55
2022-07-30T01:55:53.202Z,1.02
2022-07-30T01:58:24.745Z,1.05
2022-07-30T02:03:25.257Z,4.53
2022-07-30T02:06:01.619Z,2.50
2022-07-30T02:08:40.810Z,2.17
2022-07-30T02:11:11.951Z,6.88
2022-07-30T02:13:54.612Z,0.98
2022-07-30T02:16:28.783Z,0.65
2022-07-30T02:19:10.327Z,0.52
2022-07-30T02:21:58.958Z,2.25
2022-07-30T02:24:33.749Z,1.02
2022-07-30T02:27:10.470Z,1.58
2022-07-30T02:29:39.270Z,1.00
2022-07-30T02:32:11.063Z,3.22
2022-07-30T02:34:41.873Z,1.27
2022-07-30T02:37:12.539Z,1.55
2022-07-30T02:39:42.928Z,2.85
2022-07-30T02:42:13.181Z,1.33
2022-07-30T02:44:44.041Z,3.92
2022-07-30T02:47:14.172Z,0.70
2022-07-30T02:50:03.767Z,8.30
2022-07-30T02:52:33.276Z,2.40
2022-07-30T02:55:02.965Z,2.80
2022-07-30T02:57:33.180Z,2.60
2022-07-30T03:00:01.575Z,3.13
2022-07-30T03:02:31.419Z,2.78
2022-07-30T03:05:01.965Z,1.55
2022-07-30T03:07:32.711Z,1.63
2022-07-30T03:10:01.141Z,5.03
2022-07-30T03:12:34.633Z,2.35
2022-07-30T03:15:03.066Z,1.92
2022-07-30T03:17:37.619Z,2.13
2022-07-30T03:22:38.448Z,6.80
2022-07-30T03:25:07.690Z,5.47
2022-07-30T03:27:38.283Z,2.22
2022-07-30T03:30:07.635Z,4.22
2022-07-30T03:32:37.087Z,4.20
2022-07-30T03:35:08.778Z,2.03
2022-07-30T03:37:47.075Z,1.33
2022-07-30T03:40:15.388Z,2.38
2022-07-30T03:42:45.570Z,3.65
2022-07-30T03:45:16.070Z,5.05
2022-07-30T03:47:44.701Z,2.35
2022-07-30T03:50:15.235Z,1.75
2022-07-30T03:52:43.644Z,5.13
2022-07-30T03:55:16.937Z,5.70
2022-07-30T03:57:51.121Z,2.65
2022-07-30T04:00:22.835Z,9.55
2022-07-30T04:02:52.849Z,6.30
2022-07-30T04:05:43.626Z,4.97
2022-07-30T04:08:12.744Z,6.18
2022-07-30T04:10:41.912Z,5.35
2022-07-30T04:13:41.573Z,8.82
2022-07-30T04:16:38.873Z,6.82
2022-07-30T04:19:01.451Z,9.85
2022-07-30T04:21:32.180Z,8.65
2022-07-30T04:24:05.038Z,12.48
2022-07-30T04:26:36.022Z,10.65
2022-07-30T04:29:07.579Z,5.47
2022-07-30T04:31:39.909Z,11.15
2022-07-30T04:34:28.889Z,12.55
2022-07-30T04:36:56.908Z,7.70
2022-07-30T04:39:24.563Z,5.53
2022-07-30T04:41:52.276Z,5.40
2022-07-30T04:44:49.963Z,11.25
2022-07-30T04:47:29.039Z,13.15
2022-07-30T04:50:25.473Z,11.05
2022-07-30T04:52:56.366Z,7.95
2022-07-30T04:55:28.505Z,8.68
2022-07-30T04:57:58.099Z,7.47
2022-07-30T05:00:26.734Z,10.13
2022-07-30T05:02:55.516Z,7.57
2022-07-30T05:05:26.308Z,8.98
2022-07-30T05:07:55.613Z,6.95
2022-07-30T05:10:23.660Z,8.05
2022-07-30T05:12:51.958Z,7.28
2022-07-30T05:15:21.315Z,10.73
2022-07-30T05:17:49.640Z,16.20
2022-07-30T05:20:17.207Z,7.95
2022-07-30T05:23:03.307Z,10.35
2022-07-30T05:25:30.921Z,7.95
2022-07-30T05:28:10.246Z,12.68
2022-07-30T05:30:38.297Z,11.55
2022-07-30T05:33:15.605Z,9.13
2022-07-30T05:35:43.942Z,12.55
2022-07-30T05:38:11.323Z,10.27
2022-07-30T05:40:57.246Z,15.60
2022-07-30T05:43:56.102Z,8.18
2022-07-30T05:46:24.346Z,8.77
2022-07-30T05:48:51.993Z,8.10
2022-07-30T05:51:20.967Z,5.03
2022-07-30T05:53:48.570Z,9.80
2022-07-30T05:56:32.902Z,15.45
2022-07-30T05:59:10.123Z,8.48
2022-07-30T06:01:55.710Z,7.97
2022-07-30T06:04:29.722Z,8.60
2022-07-30T06:07:03.648Z,7.25
2022-07-30T06:09:36.857Z,6.57
2022-07-30T06:12:05.881Z,4.20
2022-07-30T06:14:33.314Z,4.85
2022-07-30T06:17:01.450Z,4.88
2022-07-30T06:19:39.320Z,9.70
2022-07-30T06:22:07.290Z,9.73
2022-07-30T06:24:40.732Z,6.70
2022-07-30T06:27:13.130Z,9.43
2022-07-30T06:29:40.495Z,8.30
2022-07-30T06:32:08.742Z,10.20
2022-07-30T06:34:36.116Z,7.28
2022-07-30T06:37:03.866Z,5.55
2022-07-30T06:39:55.932Z,5.72
2022-07-30T06:42:37.389Z,8.77
2022-07-30T06:45:24.782Z,6.43
2022-07-30T06:48:14.339Z,6.93
2022-07-30T06:50:41.901Z,7.03
2022-07-30T06:53:09.145Z,6.82
2022-07-30T06:55:58.508Z,6.30
2022-07-30T06:58:35.606Z,8.05
2022-07-30T07:01:23.658Z,5.50
2022-07-30T07:03:52.052Z,5.82
2022-07-30T07:06:19.644Z,12.27
2022-07-30T07:08:47.101Z,6.68
2022-07-30T07:11:18.159Z,6.07
2022-07-30T07:13:48.976Z,3.83
2022-07-30T07:16:27.389Z,9.23
2022-07-30T07:18:56.120Z,2.55
2022-07-30T07:21:23.705Z,3.33
2022-07-30T07:23:53.285Z,7.07
2022-07-30T07:26:39.222Z,4.78
2022-07-30T07:29:08.283Z,2.65
2022-07-30T07:32:07.155Z,1.38
2022-07-30T07:34:23.214Z,4.18
2022-07-30T07:36:50.477Z,9.73
2022-07-30T07:39:17.762Z,4.43
2022-07-30T07:41:48.854Z,7.07
2022-07-30T07:46:46.796Z,4.95
2022-07-30T07:49:14.209Z,1.67
2022-07-30T07:51:48.716Z,3.03
2022-07-30T07:54:21.967Z,1.38
2022-07-30T07:56:56.619Z,2.15
2022-07-30T07:59:40.557Z,2.03
2022-07-30T08:02:16.129Z,1.30
2022-07-30T08:04:43.427Z,2.30
2022-07-30T08:07:10.703Z,3.67
2022-07-30T08:10:11.304Z,2.38
2022-07-30T08:12:58.780Z,2.75
2022-07-30T08:15:46.153Z,3.92
2022-07-30T08:18:16.452Z,3.85
2022-07-30T08:20:54.372Z,2.35
2022-07-30T08:23:26.578Z,4.95
2022-07-30T08:25:53.811Z,2.60
2022-07-30T08:28:35.707Z,8.70
2022-07-30T08:31:03.952Z,1.95
2022-07-30T08:33:31.240Z,1.50
2022-07-30T08:36:03.058Z,5.50
2022-07-30T08:41:00.401Z,2.35
2022-07-30T08:43:29.157Z,6.00
2022-07-30T08:45:58.953Z,5.55
2022-07-30T08:49:09.213Z,5.00
2022-07-30T08:51:40.133Z,3.30
2022-07-30T08:54:23.038Z,3.20
2022-07-30T08:56:50.781Z,5.63
2022-07-30T08:59:18.564Z,3.60
2022-07-30T09:01:45.904Z,1.45
2022-07-30T09:04:14.424Z,1.85
2022-07-30T09:06:42.815Z,5.32
2022-07-30T09:09:10.712Z,4.22
2022-07-30T09:11:38.015Z,2.65
2022-07-30T09:14:14.234Z,1.35
2022-07-30T09:16:45.302Z,2.33
2022-07-30T09:19:15.864Z,1.02
2022-07-30T09:21:54.693Z,1.02
2022-07-30T09:24:26.223Z,4.13
2022-07-30T09:27:07.411Z,2.30
2022-07-30T09:30:08.870Z,2.40
2022-07-30T09:32:56.538Z,2.60
2022-07-30T09:35:43.520Z,1.95
2022-07-30T09:38:12.015Z,6.00
2022-07-30T09:41:00.150Z,3.35
2022-07-30T09:43:52.315Z,4.97
2022-07-30T09:46:40.367Z,1.27
2022-07-30T09:49:24.975Z,1.95
2022-07-30T09:51:55.672Z,1.42
2022-07-30T09:54:51.629Z,2.35
2022-07-30T09:57:25.675Z,5.15
2022-07-30T09:59:59.952Z,1.05
2022-07-30T10:02:32.895Z,4.30
2022-07-30T10:05:19.409Z,2.20
2022-07-30T10:07:59.722Z,1.77
2022-07-30T10:10:31.076Z,6.18
2022-07-30T10:13:04.585Z,3.30
2022-07-30T10:15:35.042Z,1.90
2022-07-30T10:18:06.191Z,6.50
2022-07-30T10:20:52.984Z,1.98
2022-07-30T10:23:51.349Z,0.55
2022-07-30T10:26:38.036Z,0.47
2022-07-30T10:29:34.102Z,1.30
2022-07-30T10:32:02.675Z,2.00
2022-07-30T10:34:34.416Z,1.65
2022-07-30T10:37:06.749Z,2.65
2022-07-30T10:40:07.684Z,3.03
2022-07-30T10:43:03.711Z,6.30
2022-07-30T10:45:57.228Z,1.83
2022-07-30T10:48:25.400Z,2.70
2022-07-30T10:50:57.688Z,3.38
2022-07-30T10:53:39.833Z,3.80
2022-07-30T10:56:25.591Z,8.15
2022-07-30T10:59:08.135Z,4.15
2022-07-30T11:01:51.803Z,9.02
2022-07-30T11:04:29.410Z,3.88
2022-07-30T11:07:23.917Z,1.02
2022-07-30T11:10:05.212Z,5.43
2022-07-30T11:12:42.234Z,5.75
2022-07-30T11:15:18.644Z,1.33
2022-07-30T11:18:01.645Z,2.65
2022-07-30T11:20:30.915Z,6.30
2022-07-30T11:23:20.783Z,2.80
2022-07-30T11:25:51.370Z,3.58
2022-07-30T11:28:49.523Z,7.13
2022-07-30T11:31:55.609Z,3.20
2022-07-30T11:34:19.054Z,3.40
2022-07-30T11:37:18.373Z,3.53
2022-07-30T11:39:56.023Z,1.50
2022-07-30T11:42:37.727Z,0.35
2022-07-30T11:45:16.854Z,3.95
2022-07-30T11:47:52.195Z,1.20
2022-07-30T11:50:19.634Z,4.80
2022-07-30T11:52:54.474Z,1.73
2022-07-30T11:55:36.751Z,1.70
2022-07-30T11:58:06.261Z,1.92
2022-07-30T12:00:45.634Z,1.33
2022-07-30T12:03:15.609Z,2.25
2022-07-30T12:05:44.149Z,2.53
2022-07-30T12:08:35.135Z,0.68
2022-07-30T12:11:03.122Z,2.65
2022-07-30T12:13:45.007Z,2.22
2022-07-30T12:16:18.992Z,2.97
2022-07-30T12:18:47.992Z,3.20
2022-07-30T12:21:16.361Z,0.93
2022-07-30T12:23:55.922Z,2.15
2022-07-30T12:26:29.456Z,2.40
2022-07-30T12:28:58.432Z,1.33
2022-07-30T12:31:26.758Z,2.78
2022-07-30T12:33:58.913Z,2.42
2022-07-30T12:36:33.107Z,2.15
2022-07-30T12:39:02.450Z,1.90
2022-07-30T12:41:43.846Z,3.70
2022-07-30T12:44:11.369Z,4.45
2022-07-30T12:46:41.333Z,1.90
2022-07-30T12:49:21.318Z,0.65
2022-07-30T12:52:00.242Z,4.78
2022-07-30T12:54:28.968Z,2.13
2022-07-30T12:57:02.515Z,0.90
2022-07-30T12:59:31.691Z,0.68
2022-07-30T13:02:03.521Z,1.48
2022-07-30T13:04:33.458Z,1.00
2022-07-30T13:07:11.797Z,4.53
2022-07-30T13:09:43.118Z,1.25
2022-07-30T13:12:15.146Z,0.93
2022-07-30T13:14:42.417Z,1.30
2022-07-30T13:17:10.889Z,4.55
2022-07-30T13:19:38.327Z,2.47
2022-07-30T13:22:05.562Z,1.33
2022-07-30T13:24:34.182Z,1.92
2022-07-30T13:27:01.618Z,1.02
2022-07-30T13:29:29.158Z,0.77
2022-07-30T13:31:56.413Z,1.75
2022-07-30T13:34:23.670Z,3.78
2022-07-30T13:36:50.962Z,1.02
2022-07-30T13:39:18.226Z,2.33
2022-07-30T13:41:45.876Z,1.65
2022-07-30T13:44:13.122Z,0.98
2022-07-30T13:46:41.379Z,3.35
2022-07-30T13:49:09.022Z,3.22
2022-07-30T13:51:36.420Z,1.73
2022-07-30T13:54:05.082Z,0.77
2022-07-30T13:56:32.349Z,2.58
2022-07-30T13:59:00.711Z,3.83
2022-07-30T14:01:28.126Z,3.67
2022-07-30T14:03:55.427Z,2.17
2022-07-30T14:06:22.678Z,0.85
2022-07-30T14:08:49.924Z,4.28
2022-07-30T14:11:17.942Z,1.80
2022-07-30T14:13:46.004Z,1.65
2022-07-30T14:16:42.599Z,1.45
2022-07-30T14:19:01.285Z,1.80
2022-07-30T14:21:28.752Z,0.65
2022-07-30T14:23:56.429Z,2.85
2022-07-30T14:26:23.783Z,0.85
2022-07-30T14:28:51.115Z,0.50
2022-07-30T14:31:18.355Z,1.40
2022-07-30T14:33:45.601Z,3.00
2022-07-30T14:36:12.930Z,1.85
2022-07-30T14:38:40.163Z,1.80
2022-07-30T14:41:08.953Z,0.35
2022-07-30T14:43:36.276Z,1.33
2022-07-30T14:46:03.616Z,1.27
2022-07-30T14:48:30.862Z,1.05
2022-07-30T14:51:14.480Z,0.95
2022-07-30T14:53:47.226Z,1.42
2022-07-30T14:56:14.904Z,5.22
2022-07-30T14:58:45.405Z,0.88
2022-07-30T15:01:16.291Z,1.63
2022-07-30T15:03:46.793Z,1.30
2022-07-30T15:06:15.534Z,0.30
2022-07-30T15:08:43.777Z,1.73
2022-07-30T15:11:11.033Z,1.08
2022-07-30T15:13:41.073Z,0.63
2022-07-30T15:16:18.828Z,2.45
2022-07-30T15:18:46.384Z,0.40
2022-07-30T15:21:13.844Z,0.95
2022-07-30T15:23:41.395Z,0.80
2022-07-30T15:26:08.686Z,5.10
2022-07-30T15:28:35.893Z,1.83
2022-07-30T15:31:03.593Z,3.08
2022-07-30T15:33:30.933Z,0.73
2022-07-30T15:36:03.894Z,1.20
2022-07-30T15:38:31.135Z,1.55
2022-07-30T15:40:58.392Z,1.52
2022-07-30T15:43:25.679Z,3.10
2022-07-30T15:45:56.175Z,0.22
2022-07-30T15:48:26.932Z,0.30
2022-07-30T15:51:05.215Z,2.15
2022-07-30T15:53:33.208Z,0.40
2022-07-30T15:56:00.757Z,0.20
2022-07-30T15:58:28.286Z,0.63
2022-07-30T16:00:55.899Z,2.83
2022-07-30T16:03:23.218Z,1.25
2022-07-30T16:05:50.979Z,0.30
2022-07-30T16:08:21.049Z,0.95
2022-07-30T16:10:49.039Z,0.30
2022-07-30T16:13:16.547Z,0.65
2022-07-30T16:15:44.334Z,0.73
2022-07-30T16:18:11.596Z,3.17
2022-07-30T16:20:38.913Z,14.05
2022-07-30T16:23:10.423Z,3.50
2022-07-30T16:28:07.583Z,3.33
2022-07-30T16:30:34.854Z,3.53
2022-07-30T16:33:04.396Z,1.35
2022-07-30T16:35:31.625Z,2.15
2022-07-30T16:38:02.826Z,0.40
2022-07-30T16:40:30.951Z,0.85
2022-07-30T16:42:58.331Z,0.30
2022-07-30T16:45:25.987Z,0.45
2022-07-30T16:47:53.375Z,1.00
2022-07-30T16:50:20.752Z,1.75
2022-07-30T16:52:48.029Z,0.90
2022-07-30T16:55:15.333Z,1.10
2022-07-30T16:57:42.770Z,1.42
2022-07-30T17:00:12.280Z,0.63
2022-07-30T17:02:39.581Z,0.68
2022-07-30T17:05:09.585Z,3.75
2022-07-30T17:07:39.212Z,0.22
2022-07-30T17:10:06.782Z,0.32
2022-07-30T17:12:40.195Z,1.02
2022-07-30T17:15:08.045Z,0.75
2022-07-30T17:17:35.590Z,0.50
2022-07-30T17:20:05.661Z,0.20
2022-07-30T17:22:33.539Z,0.32
2022-07-30T17:25:00.937Z,0.93
2022-07-30T17:27:28.914Z,1.35
2022-07-30T17:29:56.345Z,0.50
2022-07-30T17:32:23.600Z,0.45
2022-07-30T17:34:50.898Z,1.05
2022-07-30T17:37:18.549Z,2.42
2022-07-30T17:40:24.758Z,1.58
2022-07-30T17:42:33.572Z,1.10
2022-07-30T17:45:01.422Z,0.30
2022-07-30T17:47:28.718Z,0.60
2022-07-30T17:49:56.474Z,0.40
2022-07-30T17:52:26.315Z,1.20
2022-07-30T17:54:54.574Z,0.52
2022-07-30T17:57:22.033Z,1.05
2022-07-30T17:59:49.274Z,1.73
2022-07-30T18:02:16.619Z,2.90
2022-07-30T18:04:47.332Z,0.38
2022-07-30T18:07:14.693Z,1.48
2022-07-30T18:09:41.917Z,0.70
2022-07-30T18:12:09.375Z,1.05
2022-07-30T18:14:37.532Z,0.70
2022-07-30T18:17:05.568Z,1.85
2022-07-30T18:19:32.941Z,0.77
2022-07-30T18:22:02.234Z,1.85
2022-07-30T18:24:30.613Z,0.50
2022-07-30T18:26:57.915Z,0.68
2022-07-30T18:29:25.306Z,3.08
2022-07-30T18:31:52.663Z,2.47
2022-07-30T18:34:19.970Z,0.73
2022-07-30T18:36:51.268Z,0.63
2022-07-30T18:39:18.931Z,2.58
2022-07-30T18:41:46.250Z,1.00
2022-07-30T18:44:13.517Z,3.78
2022-07-30T18:46:40.940Z,3.75
2022-07-30T18:49:26.917Z,0.93
2022-07-30T18:51:59.891Z,1.80
2022-07-30T18:54:27.993Z,4.75
2022-07-30T18:56:55.401Z,0.73
2022-07-30T18:59:22.743Z,1.20
2022-07-30T19:01:50.120Z,0.60
2022-07-30T19:04:17.430Z,0.88
2022-07-30T19:06:44.798Z,1.17
2022-07-30T19:09:17.265Z,0.93
2022-07-30T19:11:46.436Z,0.90
2022-07-30T19:14:14.525Z,3.13
2022-07-30T19:16:42.932Z,1.60
2022-07-30T19:19:12.880Z,0.82
2022-07-30T19:21:40.847Z,1.70
2022-07-30T19:24:09.974Z,0.60
2022-07-30T19:26:39.771Z,0.55
2022-07-30T19:29:08.102Z,2.83
2022-07-30T19:31:35.924Z,0.70
2022-07-30T19:34:03.682Z,0.80
2022-07-30T19:36:31.401Z,1.58
2022-07-30T19:38:59.036Z,2.65
2022-07-30T19:41:35.730Z,2.72
2022-07-30T19:44:04.296Z,2.15
2022-07-30T19:46:37.001Z,1.60
2022-07-30T19:49:06.719Z,2.58
2022-07-30T19:52:10.917Z,5.72
2022-07-30T19:54:21.780Z,3.58
2022-07-30T19:56:49.167Z,3.22
2022-07-30T19:59:18.385Z,1.08
2022-07-30T20:01:51.901Z,5.72
2022-07-30T20:04:19.533Z,1.40
2022-07-30T20:06:48.685Z,0.88
2022-07-30T20:09:17.103Z,1.00
2022-07-30T20:11:44.610Z,1.52
2022-07-30T20:14:12.247Z,0.82
2022-07-30T20:16:44.199Z,3.70
2022-07-30T20:19:15.823Z,1.23
2022-07-30T20:21:56.949Z,1.23
2022-07-30T20:24:31.556Z,4.47
2022-07-30T20:27:01.775Z,1.25
2022-07-30T20:29:49.075Z,2.45
2022-07-30T20:32:17.708Z,3.35
2022-07-30T20:34:45.907Z,1.08
2022-07-30T20:37:21.605Z,1.10
2022-07-30T20:39:50.310Z,1.30
2022-07-30T20:42:18.520Z,2.50
2022-07-30T20:44:50.679Z,2.45
2022-07-30T20:47:34.232Z,1.58
2022-07-30T20:50:03.032Z,1.67
2022-07-30T20:52:30.361Z,0.77
2022-07-30T20:54:57.715Z,1.30
2022-07-30T20:57:30.815Z,3.67
2022-07-30T21:00:12.943Z,2.53
2022-07-30T21:02:40.464Z,2.13
2022-07-30T21:05:08.270Z,1.13
2022-07-30T21:07:41.515Z,1.58
2022-07-30T21:10:12.300Z,3.03
2022-07-30T21:12:39.993Z,1.33
2022-07-30T21:15:15.757Z,3.50
2022-07-30T21:17:51.991Z,5.32
2022-07-30T21:20:27.938Z,2.97
2022-07-30T21:23:10.283Z,3.08
2022-07-30T21:26:00.507Z,5.65
2022-07-30T21:28:28.316Z,0.80
2022-07-30T21:30:57.090Z,1.15
2022-07-30T21:33:27.043Z,2.95
2022-07-30T21:35:59.749Z,4.05
2022-07-30T21:38:28.635Z,1.75
2022-07-30T21:40:58.686Z,1.83
2022-07-30T21:43:29.832Z,1.55
2022-07-30T21:45:58.841Z,1.33
2022-07-30T21:48:26.893Z,4.38
2022-07-30T21:50:55.068Z,5.28
2022-07-30T21:56:13.551Z,6.97
2022-07-30T21:58:42.370Z,2.45
2022-07-30T22:01:17.491Z,3.08
2022-07-30T22:04:04.281Z,6.47
2022-07-30T22:06:39.730Z,4.07
2022-07-30T22:09:18.764Z,2.78
2022-07-30T22:11:54.710Z,2.45
2022-07-30T22:14:25.605Z,1.65
2022-07-30T22:16:54.576Z,6.25
2022-07-30T22:19:22.109Z,2.22
2022-07-30T22:21:50.972Z,1.98
2022-07-30T22:24:29.472Z,2.33
2022-07-30T22:27:11.015Z,3.83
2022-07-30T22:29:43.341Z,0.93
2022-07-30T22:32:11.927Z,2.60
2022-07-30T22:34:39.473Z,2.70
2022-07-30T22:37:09.202Z,4.20
2022-07-30T22:39:50.872Z,2.50
2022-07-30T22:42:24.408Z,2.55
2022-07-30T22:44:54.811Z,3.28
2022-07-30T22:47:53.899Z,4.30
2022-07-30T22:50:11.668Z,4.07
2022-07-30T22:52:50.110Z,1.13
2022-07-30T22:55:23.431Z,3.00
2022-07-30T22:57:51.218Z,3.75
2022-07-30T23:00:27.292Z,1.88
2022-07-30T23:03:07.842Z,5.45
2022-07-30T23:05:35.812Z,4.50
2022-07-30T23:08:04.562Z,4.03
2022-07-30T23:10:32.160Z,3.70
2022-07-30T23:12:27.746Z,1.45
2022-07-30T23:12:59.535Z,4.45
2022-07-30T23:15:26.995Z,3.80
2022-07-30T23:17:54.370Z,2.35
2022-07-30T23:20:21.947Z,1.52
2022-07-30T23:22:49.800Z,4.78
2022-07-30T23:25:17.527Z,7.65
2022-07-30T23:27:46.871Z,5.47
2022-07-30T23:30:14.452Z,2.60
2022-07-30T23:32:41.917Z,4.28
2022-07-30T23:35:10.247Z,14.93
2022-07-30T23:37:48.991Z,3.33
2022-07-30T23:40:19.629Z,1.38
2022-07-30T23:42:50.210Z,2.72
2022-07-30T23:45:18.432Z,1.27
2022-07-30T23:48:01.088Z,2.42
2022-07-30T23:50:34.430Z,4.13
2022-07-30T23:53:04.410Z,4.95
2022-07-30T23:55:32.324Z,2.08
2022-07-30T23:58:00.426Z,3.17
